sensor_id;sensor_type;location;lat;lon;timestamp;pressure;altitude;pressure_sealevel;temperature;humidity
64340;BME280;63709;53.258;-8.814;2023-04-06T00:02:12;101497.38;;;13.63;100.00
64340;BME280;63709;53.258;-8.814;2023-04-06T00:04:38;101504.56;;;13.62;100.00
64340;BME280;63709;53.258;-8.814;2023-04-06T00:07:04;101500.44;;;13.69;100.00
64340;BME280;63709;53.258;-8.814;2023-04-06T00:09:29;101488.88;;;13.69;100.00
64340;BME280;63709;53.258;-8.814;2023-04-06T00:11:55;101498.25;;;13.74;100.00
64340;BME280;63709;53.258;-8.814;2023-04-06T00:14:21;101490.69;;;13.68;100.00
64340;BME280;63709;53.258;-8.814;2023-04-06T00:16:47;101484.09;;;13.61;100.00
64340;BME280;63709;53.258;-8.814;2023-04-06T00:19:14;101471.84;;;13.57;100.00
64340;BME280;63709;53.258;-8.814;2023-04-06T00:21:40;101463.72;;;13.59;100.00
64340;BME280;63709;53.258;-8.814;2023-04-06T00:24:05;101482.75;;;13.67;100.00
64340;BME280;63709;53.258;-8.814;2023-04-06T00:26:31;101484.84;;;13.74;100.00
64340;BME280;63709;53.258;-8.814;2023-04-06T00:28:57;101482.75;;;13.67;100.00
64340;BME280;63709;53.258;-8.814;2023-04-06T00:31:24;101491.78;;;13.77;100.00
64340;BME280;63709;53.258;-8.814;2023-04-06T00:33:50;101478.22;;;13.67;100.00
64340;BME280;63709;53.258;-8.814;2023-04-06T00:36:16;101487.03;;;13.69;100.00
64340;BME280;63709;53.258;-8.814;2023-04-06T00:38:42;101470.94;;;13.69;100.00
64340;BME280;63709;53.258;-8.814;2023-04-06T00:41:07;101489.22;;;13.75;100.00
64340;BME280;63709;53.258;-8.814;2023-04-06T00:43:33;101479.22;;;13.77;100.00
64340;BME280;63709;53.258;-8.814;2023-04-06T00:45:59;101484.59;;;13.77;100.00
64340;BME280;63709;53.258;-8.814;2023-04-06T00:48:24;101479.22;;;13.77;100.00
64340;BME280;63709;53.258;-8.814;2023-04-06T00:50:50;101477.88;;;13.72;100.00
64340;BME280;63709;53.258;-8.814;2023-04-06T00:53:16;101476.16;;;13.71;100.00
64340;BME280;63709;53.258;-8.814;2023-04-06T00:55:48;101485.44;;;13.67;100.00
64340;BME280;63709;53.258;-8.814;2023-04-06T00:58:14;101470.94;;;13.69;100.00
64340;BME280;63709;53.258;-8.814;2023-04-06T01:00:41;101460.56;;;13.65;100.00
64340;BME280;63709;53.258;-8.814;2023-04-06T01:03:07;101467.25;;;13.70;100.00
64340;BME280;63709;53.258;-8.814;2023-04-06T01:05:34;101465.41;;;13.60;100.00
64340;BME280;63709;53.258;-8.814;2023-04-06T01:08:00;101448.09;;;13.52;100.00
64340;BME280;63709;53.258;-8.814;2023-04-06T01:10:27;101470.06;;;13.58;100.00
64340;BME280;63709;53.258;-8.814;2023-04-06T01:12:54;101470.28;;;13.54;100.00
64340;BME280;63709;53.258;-8.814;2023-04-06T01:15:20;101467.97;;;13.50;100.00
64340;BME280;63709;53.258;-8.814;2023-04-06T01:17:46;101467.44;;;13.45;100.00
64340;BME280;63709;53.258;-8.814;2023-04-06T01:20:15;101451.59;;;13.42;100.00
64340;BME280;63709;53.258;-8.814;2023-04-06T01:22:40;101454.16;;;13.43;100.00
64340;BME280;63709;53.258;-8.814;2023-04-06T01:25:10;101465.53;;;13.47;100.00
64340;BME280;63709;53.258;-8.814;2023-04-06T01:27:36;101478.31;;;13.43;100.00
64340;BME280;63709;53.258;-8.814;2023-04-06T01:30:04;101454.41;;;13.40;100.00
64340;BME280;63709;53.258;-8.814;2023-04-06T01:32:30;101456.09;;;13.41;100.00
64340;BME280;63709;53.258;-8.814;2023-04-06T01:34:56;101462.19;;;13.32;100.00
64340;BME280;63709;53.258;-8.814;2023-04-06T01:37:21;101468.84;;;13.26;100.00
64340;BME280;63709;53.258;-8.814;2023-04-06T01:39:50;101461.34;;;13.19;100.00
64340;BME280;63709;53.258;-8.814;2023-04-06T01:42:17;101475.94;;;13.27;100.00
64340;BME280;63709;53.258;-8.814;2023-04-06T01:44:43;101469.84;;;13.25;100.00
64340;BME280;63709;53.258;-8.814;2023-04-06T01:47:09;101467.16;;;13.25;100.00
64340;BME280;63709;53.258;-8.814;2023-04-06T01:49:34;101474.75;;;13.31;100.00
64340;BME280;63709;53.258;-8.814;2023-04-06T01:52:00;101473.38;;;13.26;100.00
64340;BME280;63709;53.258;-8.814;2023-04-06T01:54:25;101470.03;;;13.22;100.00
64340;BME280;63709;53.258;-8.814;2023-04-06T01:56:52;101454.75;;;13.12;100.00
64340;BME280;63709;53.258;-8.814;2023-04-06T01:59:19;101453.06;;;13.11;100.00
64340;BME280;63709;53.258;-8.814;2023-04-06T02:01:45;101459.66;;;13.18;100.00
64340;BME280;63709;53.258;-8.814;2023-04-06T02:04:10;101449.63;;;13.08;100.00
64340;BME280;63709;53.258;-8.814;2023-04-06T02:06:36;101457.03;;;13.05;100.00
64340;BME280;63709;53.258;-8.814;2023-04-06T02:09:01;101451.03;;;13.01;100.00
64340;BME280;63709;53.258;-8.814;2023-04-06T02:11:27;101456.41;;;13.01;100.00
64340;BME280;63709;53.258;-8.814;2023-04-06T02:13:53;101461.19;;;12.98;100.00
64340;BME280;63709;53.258;-8.814;2023-04-06T02:16:19;101463.22;;;12.94;100.00
64340;BME280;63709;53.258;-8.814;2023-04-06T02:18:46;101476.00;;;12.91;100.00
64340;BME280;63709;53.258;-8.814;2023-04-06T02:21:12;101466.56;;;12.85;100.00
64340;BME280;63709;53.258;-8.814;2023-04-06T02:23:38;101475.47;;;12.86;100.00
64340;BME280;63709;53.258;-8.814;2023-04-06T02:26:03;101456.78;;;12.73;100.00
64340;BME280;63709;53.258;-8.814;2023-04-06T02:28:29;101476.44;;;12.84;100.00
64340;BME280;63709;53.258;-8.814;2023-04-06T02:30:55;101463.47;;;12.78;100.00
64340;BME280;63709;53.258;-8.814;2023-04-06T02:33:22;101475.94;;;12.79;100.00
64340;BME280;63709;53.258;-8.814;2023-04-06T02:35:48;101452.94;;;12.64;100.00
64340;BME280;63709;53.258;-8.814;2023-04-06T02:38:13;101470.38;;;12.70;100.00
64340;BME280;63709;53.258;-8.814;2023-04-06T02:40:38;101472.00;;;12.72;100.00
64340;BME280;63709;53.258;-8.814;2023-04-06T02:43:05;101464.75;;;12.62;100.00
64340;BME280;63709;53.258;-8.814;2023-04-06T02:45:30;101473.78;;;12.72;100.00
64340;BME280;63709;53.258;-8.814;2023-04-06T02:47:56;101455.44;;;12.54;100.00
64340;BME280;63709;53.258;-8.814;2023-04-06T02:50:21;101477.72;;;12.55;100.00
64340;BME280;63709;53.258;-8.814;2023-04-06T02:52:47;101484.78;;;12.56;100.00
64340;BME280;63709;53.258;-8.814;2023-04-06T02:55:13;101485.00;;;12.53;100.00
64340;BME280;63709;53.258;-8.814;2023-04-06T02:57:41;101481.38;;;12.54;100.00
64340;BME280;63709;53.258;-8.814;2023-04-06T03:00:07;101471.09;;;12.48;100.00
64340;BME280;63709;53.258;-8.814;2023-04-06T03:02:32;101482.69;;;12.35;100.00
64340;BME280;63709;53.258;-8.814;2023-04-06T03:04:59;101465.09;;;12.44;100.00
64340;BME280;63709;53.258;-8.814;2023-04-06T03:07:24;101477.31;;;12.48;100.00
64340;BME280;63709;53.258;-8.814;2023-04-06T03:09:50;101453.88;;;12.39;100.00
64340;BME280;63709;53.258;-8.814;2023-04-06T03:12:16;101471.72;;;12.51;100.00
64340;BME280;63709;53.258;-8.814;2023-04-06T03:14:41;101481.47;;;12.52;100.00
64340;BME280;63709;53.258;-8.814;2023-04-06T03:17:08;101475.25;;;12.52;100.00
64340;BME280;63709;53.258;-8.814;2023-04-06T03:19:33;101477.72;;;12.55;100.00
64340;BME280;63709;53.258;-8.814;2023-04-06T03:21:59;101480.28;;;12.56;100.00
64340;BME280;63709;53.258;-8.814;2023-04-06T03:24:26;101462.44;;;12.44;100.00
64340;BME280;63709;53.258;-8.814;2023-04-06T03:26:52;101471.22;;;12.46;100.00
64340;BME280;63709;53.258;-8.814;2023-04-06T03:29:17;101484.69;;;12.57;100.00
64340;BME280;63709;53.258;-8.814;2023-04-06T03:31:43;101482.72;;;12.59;100.00
64340;BME280;63709;53.258;-8.814;2023-04-06T03:34:08;101472.50;;;12.53;100.00
64340;BME280;63709;53.258;-8.814;2023-04-06T03:36:35;101464.47;;;12.53;100.00
64340;BME280;63709;53.258;-8.814;2023-04-06T03:39:02;101483.19;;;12.53;100.00
64340;BME280;63709;53.258;-8.814;2023-04-06T03:41:28;101480.91;;;12.60;100.00
64340;BME280;63709;53.258;-8.814;2023-04-06T03:43:54;101485.06;;;12.64;100.00
64340;BME280;63709;53.258;-8.814;2023-04-06T03:46:20;101475.81;;;12.57;100.00
64340;BME280;63709;53.258;-8.814;2023-04-06T03:48:48;101475.25;;;12.52;100.00
64340;BME280;63709;53.258;-8.814;2023-04-06T03:51:14;101489.28;;;12.55;100.00
64340;BME280;63709;53.258;-8.814;2023-04-06T03:53:42;101485.00;;;12.53;100.00
64340;BME280;63709;53.258;-8.814;2023-04-06T03:56:07;101480.75;;;12.50;100.00
64340;BME280;63709;53.258;-8.814;2023-04-06T03:58:34;101488.66;;;12.52;100.00
64340;BME280;63709;53.258;-8.814;2023-04-06T04:00:59;101497.38;;;12.43;100.00
64340;BME280;63709;53.258;-8.814;2023-04-06T04:03:25;101501.22;;;12.39;100.00
64340;BME280;63709;53.258;-8.814;2023-04-06T04:05:54;101497.28;;;12.31;100.00
64340;BME280;63709;53.258;-8.814;2023-04-06T04:08:24;101504.88;;;12.25;100.00
64340;BME280;63709;53.258;-8.814;2023-04-06T04:10:50;101509.38;;;12.24;100.00
64340;BME280;63709;53.258;-8.814;2023-04-06T04:13:15;101491.50;;;12.12;100.00
64340;BME280;63709;53.258;-8.814;2023-04-06T04:15:41;101515.81;;;12.22;100.00
64340;BME280;63709;53.258;-8.814;2023-04-06T04:18:07;101496.22;;;12.08;100.00
64340;BME280;63709;53.258;-8.814;2023-04-06T04:20:33;101519.03;;;12.14;100.00
64340;BME280;63709;53.258;-8.814;2023-04-06T04:23:05;101529.19;;;12.09;100.00
64340;BME280;63709;53.258;-8.814;2023-04-06T04:25:31;101512.72;;;12.02;100.00
64340;BME280;63709;53.258;-8.814;2023-04-06T04:27:57;101529.41;;;12.06;100.00
64340;BME280;63709;53.258;-8.814;2023-04-06T04:30:22;101529.81;;;12.00;100.00
64340;BME280;63709;53.258;-8.814;2023-04-06T04:32:49;101540.31;;;12.03;100.00
64340;BME280;63709;53.258;-8.814;2023-04-06T04:35:16;101539.88;;;11.96;100.00
64340;BME280;63709;53.258;-8.814;2023-04-06T04:37:41;101523.50;;;11.88;100.00
64340;BME280;63709;53.258;-8.814;2023-04-06T04:40:07;101530.25;;;11.94;100.00
64340;BME280;63709;53.258;-8.814;2023-04-06T04:42:33;101542.56;;;11.96;100.00
64340;BME280;63709;53.258;-8.814;2023-04-06T04:44:59;101558.16;;;11.90;100.00
64340;BME280;63709;53.258;-8.814;2023-04-06T04:47:26;101553.25;;;11.96;100.00
64340;BME280;63709;53.258;-8.814;2023-04-06T04:49:51;101556.38;;;12.03;100.00
64340;BME280;63709;53.258;-8.814;2023-04-06T04:52:17;101540.66;;;11.98;100.00
64340;BME280;63709;53.258;-8.814;2023-04-06T04:54:43;101554.75;;;12.00;100.00
64340;BME280;63709;53.258;-8.814;2023-04-06T04:57:09;101563.22;;;12.07;100.00
64340;BME280;63709;53.258;-8.814;2023-04-06T04:59:36;101573.06;;;12.06;100.00
64340;BME280;63709;53.258;-8.814;2023-04-06T05:02:01;101571.25;;;12.07;100.00
64340;BME280;63709;53.258;-8.814;2023-04-06T05:04:27;101570.94;;;11.99;100.00
64340;BME280;63709;53.258;-8.814;2023-04-06T05:07:08;101574.88;;;11.93;100.00
64340;BME280;63709;53.258;-8.814;2023-04-06T05:09:35;101579.16;;;12.08;100.00
64340;BME280;63709;53.258;-8.814;2023-04-06T05:12:01;101579.28;;;12.07;100.00
64340;BME280;63709;53.258;-8.814;2023-04-06T05:14:27;101584.63;;;12.07;100.00
64340;BME280;63709;53.258;-8.814;2023-04-06T05:16:53;101584.50;;;12.08;100.00
64340;BME280;63709;53.258;-8.814;2023-04-06T05:19:19;101579.06;;;12.10;100.00
64340;BME280;63709;53.258;-8.814;2023-04-06T05:21:45;101582.28;;;12.02;100.00
64340;BME280;63709;53.258;-8.814;2023-04-06T05:24:11;101597.03;;;12.08;100.00
64340;BME280;63709;53.258;-8.814;2023-04-06T05:26:37;101598.97;;;12.06;100.00
64340;BME280;63709;53.258;-8.814;2023-04-06T05:29:03;101591.50;;;11.98;100.00
64340;BME280;63709;53.258;-8.814;2023-04-06T05:31:29;101587.00;;;11.99;100.00
64340;BME280;63709;53.258;-8.814;2023-04-06T05:33:55;101598.34;;;12.02;100.00
64340;BME280;63709;53.258;-8.814;2023-04-06T05:36:22;101602.06;;;12.00;100.00
64340;BME280;63709;53.258;-8.814;2023-04-06T05:38:47;101605.38;;;11.91;100.00
64340;BME280;63709;53.258;-8.814;2023-04-06T05:41:17;101611.03;;;11.86;100.00
64340;BME280;63709;53.258;-8.814;2023-04-06T05:43:44;101614.97;;;11.80;100.00
64340;BME280;63709;53.258;-8.814;2023-04-06T05:46:10;101621.28;;;11.79;100.00
64340;BME280;63709;53.258;-8.814;2023-04-06T05:48:36;101604.44;;;11.65;100.00
64340;BME280;63709;53.258;-8.814;2023-04-06T05:51:02;101611.03;;;11.59;100.00
64340;BME280;63709;53.258;-8.814;2023-04-06T05:53:32;101610.69;;;11.51;100.00
64340;BME280;63709;53.258;-8.814;2023-04-06T05:56:02;101622.63;;;11.45;100.00
64340;BME280;63709;53.258;-8.814;2023-04-06T05:58:28;101616.91;;;11.51;100.00
64340;BME280;63709;53.258;-8.814;2023-04-06T06:01:01;101618.22;;;11.31;100.00
64340;BME280;63709;53.258;-8.814;2023-04-06T06:03:28;101604.09;;;11.29;100.00
64340;BME280;63709;53.258;-8.814;2023-04-06T06:05:59;101609.81;;;11.23;100.00
64340;BME280;63709;53.258;-8.814;2023-04-06T06:08:26;101624.31;;;11.33;100.00
64340;BME280;63709;53.258;-8.814;2023-04-06T06:10:51;101612.91;;;11.17;100.00
64340;BME280;63709;53.258;-8.814;2023-04-06T06:13:18;101617.59;;;11.13;100.00
64340;BME280;63709;53.258;-8.814;2023-04-06T06:15:43;101630.53;;;11.20;100.00
64340;BME280;63709;53.258;-8.814;2023-04-06T06:18:08;101617.00;;;11.08;100.00
64340;BME280;63709;53.258;-8.814;2023-04-06T06:20:34;101641.94;;;11.09;100.00
64340;BME280;63709;53.258;-8.814;2023-04-06T06:23:00;101636.69;;;11.07;100.00
64340;BME280;63709;53.258;-8.814;2023-04-06T06:25:25;101641.34;;;11.04;100.00
64340;BME280;63709;53.258;-8.814;2023-04-06T06:27:51;101637.28;;;10.98;100.00
64340;BME280;63709;53.258;-8.814;2023-04-06T06:30:16;101638.44;;;10.94;100.00
64340;BME280;63709;53.258;-8.814;2023-04-06T06:32:43;101646.44;;;10.94;100.00
64340;BME280;63709;53.258;-8.814;2023-04-06T06:35:09;101633.94;;;10.95;100.00
64340;BME280;63709;53.258;-8.814;2023-04-06T06:37:34;101645.38;;;10.97;100.00
64340;BME280;63709;53.258;-8.814;2023-04-06T06:40:01;101642.69;;;10.97;100.00
64340;BME280;63709;53.258;-8.814;2023-04-06T06:42:28;101655.38;;;11.07;100.00
64340;BME280;63709;53.258;-8.814;2023-04-06T06:44:53;101662.25;;;11.11;100.00
64340;BME280;63709;53.258;-8.814;2023-04-06T06:47:20;101641.00;;;10.96;100.00
64340;BME280;63709;53.258;-8.814;2023-04-06T06:49:47;101662.34;;;11.10;100.00
64340;BME280;63709;53.258;-8.814;2023-04-06T06:52:14;101672.06;;;11.11;100.00
64340;BME280;63709;53.258;-8.814;2023-04-06T06:54:39;101668.19;;;11.02;100.00
64340;BME280;63709;53.258;-8.814;2023-04-06T06:57:05;101667.22;;;11.03;100.00
64340;BME280;63709;53.258;-8.814;2023-04-06T06:59:31;101664.84;;;10.99;100.00
64340;BME280;63709;53.258;-8.814;2023-04-06T07:01:57;101669.53;;;10.95;100.00
64340;BME280;63709;53.258;-8.814;2023-04-06T07:04:23;101647.69;;;10.88;100.00
64340;BME280;63709;53.258;-8.814;2023-04-06T07:06:49;101675.41;;;11.00;100.00
64340;BME280;63709;53.258;-8.814;2023-04-06T07:09:16;101675.72;;;11.10;100.00
64340;BME280;63709;53.258;-8.814;2023-04-06T07:11:42;101671.53;;;11.06;100.00
64340;BME280;63709;53.258;-8.814;2023-04-06T07:14:08;101674.94;;;11.08;100.00
64340;BME280;63709;53.258;-8.814;2023-04-06T07:16:34;101671.09;;;11.12;100.00
64340;BME280;63709;53.258;-8.814;2023-04-06T07:19:00;101674.28;;;11.04;100.00
64340;BME280;63709;53.258;-8.814;2023-04-06T07:21:25;101655.31;;;10.95;100.00
64340;BME280;63709;53.258;-8.814;2023-04-06T07:23:54;101681.53;;;11.02;100.00
64340;BME280;63709;53.258;-8.814;2023-04-06T07:26:21;101683.34;;;11.16;100.00
64340;BME280;63709;53.258;-8.814;2023-04-06T07:28:47;101688.41;;;11.21;100.00
64340;BME280;63709;53.258;-8.814;2023-04-06T07:31:14;101666.72;;;11.11;100.00
64340;BME280;63709;53.258;-8.814;2023-04-06T07:33:40;101697.75;;;11.28;100.00
64340;BME280;63709;53.258;-8.814;2023-04-06T07:36:05;101689.41;;;11.32;100.00
64340;BME280;63709;53.258;-8.814;2023-04-06T07:38:31;101699.63;;;11.40;100.00
64340;BME280;63709;53.258;-8.814;2023-04-06T07:40:57;101703.81;;;11.44;100.00
64340;BME280;63709;53.258;-8.814;2023-04-06T07:43:23;101710.78;;;11.47;100.00
64340;BME280;63709;53.258;-8.814;2023-04-06T07:45:49;101719.03;;;11.56;100.00
64340;BME280;63709;53.258;-8.814;2023-04-06T07:48:20;101694.06;;;11.43;100.00
64340;BME280;63709;53.258;-8.814;2023-04-06T07:50:47;101715.00;;;11.63;100.00
64340;BME280;63709;53.258;-8.814;2023-04-06T07:53:13;101708.81;;;11.63;100.00
64340;BME280;63709;53.258;-8.814;2023-04-06T07:55:45;101722.34;;;11.74;100.00
64340;BME280;63709;53.258;-8.814;2023-04-06T07:58:12;101729.19;;;11.78;100.00
64340;BME280;63709;53.258;-8.814;2023-04-06T08:00:37;101719.84;;;11.85;100.00
64340;BME280;63709;53.258;-8.814;2023-04-06T08:03:04;101732.53;;;11.96;100.00
64340;BME280;63709;53.258;-8.814;2023-04-06T08:05:29;101725.03;;;12.01;100.00
64340;BME280;63709;53.258;-8.814;2023-04-06T08:07:55;101731.41;;;12.13;100.00
64340;BME280;63709;53.258;-8.814;2023-04-06T08:10:21;101734.50;;;12.20;100.00
64340;BME280;63709;53.258;-8.814;2023-04-06T08:12:46;101745.34;;;12.31;100.00
64340;BME280;63709;53.258;-8.814;2023-04-06T08:15:12;101739.50;;;12.39;100.00
64340;BME280;63709;53.258;-8.814;2023-04-06T08:17:37;101739.84;;;12.47;100.00
64340;BME280;63709;53.258;-8.814;2023-04-06T08:20:03;101744.88;;;12.51;100.00
64340;BME280;63709;53.258;-8.814;2023-04-06T08:22:29;101725.81;;;12.56;100.00
64340;BME280;63709;53.258;-8.814;2023-04-06T08:24:55;101749.19;;;12.67;100.00
64340;BME280;63709;53.258;-8.814;2023-04-06T08:27:21;101757.44;;;12.76;100.00
64340;BME280;63709;53.258;-8.814;2023-04-06T08:29:49;101752.09;;;13.02;100.00
64340;BME280;63709;53.258;-8.814;2023-04-06T08:32:16;101742.84;;;13.19;100.00
64340;BME280;63709;53.258;-8.814;2023-04-06T08:34:41;101755.50;;;13.42;100.00
64340;BME280;63709;53.258;-8.814;2023-04-06T08:37:06;101739.31;;;13.44;100.00
64340;BME280;63709;53.258;-8.814;2023-04-06T08:39:32;101744.88;;;13.53;100.00
64340;BME280;63709;53.258;-8.814;2023-04-06T08:42:01;101755.09;;;13.72;100.00
64340;BME280;63709;53.258;-8.814;2023-04-06T08:44:29;101755.41;;;13.68;100.00
64340;BME280;63709;53.258;-8.814;2023-04-06T08:46:57;101753.78;;;13.78;100.00
64340;BME280;63709;53.258;-8.814;2023-04-06T08:49:24;101745.56;;;13.68;100.00
64340;BME280;63709;53.258;-8.814;2023-04-06T08:51:51;101760.06;;;13.66;100.00
64340;BME280;63709;53.258;-8.814;2023-04-06T08:54:17;101761.50;;;13.83;100.00
64340;BME280;63709;53.258;-8.814;2023-04-06T08:56:43;101761.34;;;13.97;100.00
64340;BME280;63709;53.258;-8.814;2023-04-06T08:59:12;101769.84;;;13.91;100.00
64340;BME280;63709;53.258;-8.814;2023-04-06T09:01:40;101771.22;;;14.20;100.00
64340;BME280;63709;53.258;-8.814;2023-04-06T09:04:07;101766.56;;;14.46;100.00
64340;BME280;63709;53.258;-8.814;2023-04-06T09:06:36;101748.59;;;14.82;100.00
64340;BME280;63709;53.258;-8.814;2023-04-06T09:09:02;101764.16;;;15.12;100.00
64340;BME280;63709;53.258;-8.814;2023-04-06T09:11:49;101767.34;;;15.29;100.00
64340;BME280;63709;53.258;-8.814;2023-04-06T09:14:16;101765.25;;;15.55;100.00
64340;BME280;63709;53.258;-8.814;2023-04-06T09:16:44;101762.06;;;15.49;100.00
64340;BME280;63709;53.258;-8.814;2023-04-06T09:19:11;101772.09;;;15.59;100.00
64340;BME280;63709;53.258;-8.814;2023-04-06T09:21:38;101765.34;;;15.64;100.00
64340;BME280;63709;53.258;-8.814;2023-04-06T09:24:06;101783.19;;;15.99;100.00
64340;BME280;63709;53.258;-8.814;2023-04-06T09:26:32;101785.06;;;16.19;100.00
64340;BME280;63709;53.258;-8.814;2023-04-06T09:28:59;101788.78;;;16.07;90.79
64340;BME280;63709;53.258;-8.814;2023-04-06T09:31:31;101795.63;;;16.11;89.80
64340;BME280;63709;53.258;-8.814;2023-04-06T09:34:00;101793.41;;;16.49;100.00
64340;BME280;63709;53.258;-8.814;2023-04-06T09:36:36;101807.72;;;16.49;95.93
64340;BME280;63709;53.258;-8.814;2023-04-06T09:39:07;101789.75;;;16.70;100.00
64340;BME280;63709;53.258;-8.814;2023-04-06T09:41:37;101797.69;;;16.51;94.71
64340;BME280;63709;53.258;-8.814;2023-04-06T09:46:40;101813.72;;;16.32;92.37
64340;BME280;63709;53.258;-8.814;2023-04-06T09:49:09;101803.69;;;16.23;89.80
64340;BME280;63709;53.258;-8.814;2023-04-06T09:51:46;101818.56;;;16.06;90.97
64340;BME280;63709;53.258;-8.814;2023-04-06T09:54:19;101822.13;;;15.95;91.78
64340;BME280;63709;53.258;-8.814;2023-04-06T10:00:34;101820.41;;;15.94;100.00
64340;BME280;63709;53.258;-8.814;2023-04-06T10:07:57;101833.38;;;15.89;88.27
64340;BME280;63709;53.258;-8.814;2023-04-06T10:10:26;101833.56;;;16.19;89.54
64340;BME280;63709;53.258;-8.814;2023-04-06T10:12:53;101837.53;;;16.04;86.44
64340;BME280;63709;53.258;-8.814;2023-04-06T10:15:19;101840.97;;;16.06;87.71
64340;BME280;63709;53.258;-8.814;2023-04-06T10:17:45;101831.50;;;16.12;85.57
64340;BME280;63709;53.258;-8.814;2023-04-06T10:20:35;101840.44;;;16.12;83.31
64340;BME280;63709;53.258;-8.814;2023-04-06T10:25:58;101823.53;;;16.21;85.04
64340;BME280;63709;53.258;-8.814;2023-04-06T10:28:26;101841.22;;;16.67;89.63
64340;BME280;63709;53.258;-8.814;2023-04-06T10:31:00;101846.56;;;16.58;89.19
64340;BME280;63709;53.258;-8.814;2023-04-06T10:33:28;101842.59;;;16.30;84.63
64340;BME280;63709;53.258;-8.814;2023-04-06T10:35:55;101835.94;;;16.02;75.18
64340;BME280;63709;53.258;-8.814;2023-04-06T10:38:33;101836.47;;;16.28;87.03
64340;BME280;63709;53.258;-8.814;2023-04-06T10:41:10;101842.25;;;16.23;79.23
64340;BME280;63709;53.258;-8.814;2023-04-06T10:43:36;101851.16;;;16.35;83.30
64340;BME280;63709;53.258;-8.814;2023-04-06T10:46:04;101853.31;;;16.52;84.68
64340;BME280;63709;53.258;-8.814;2023-04-06T10:48:41;101847.41;;;16.58;84.41
64340;BME280;63709;53.258;-8.814;2023-04-06T10:51:12;101827.88;;;16.34;78.13
64340;BME280;63709;53.258;-8.814;2023-04-06T10:53:44;101854.03;;;16.54;89.79
64340;BME280;63709;53.258;-8.814;2023-04-06T10:56:12;101853.44;;;16.83;85.28
64340;BME280;63709;53.258;-8.814;2023-04-06T10:58:47;101844.63;;;17.02;80.71
64340;BME280;63709;53.258;-8.814;2023-04-06T11:01:15;101844.03;;;17.40;75.48
64340;BME280;63709;53.258;-8.814;2023-04-06T11:03:45;101839.38;;;17.82;78.50
64340;BME280;63709;53.258;-8.814;2023-04-06T11:06:22;101840.34;;;18.31;71.08
64340;BME280;63709;53.258;-8.814;2023-04-06T11:08:48;101838.78;;;18.68;76.70
64340;BME280;63709;53.258;-8.814;2023-04-06T11:11:17;101846.34;;;18.54;65.48
64340;BME280;63709;53.258;-8.814;2023-04-06T11:13:54;101835.25;;;18.28;69.25
64340;BME280;63709;53.258;-8.814;2023-04-06T11:16:30;101846.56;;;18.03;66.50
64340;BME280;63709;53.258;-8.814;2023-04-06T11:19:06;101854.75;;;17.82;69.37
64340;BME280;63709;53.258;-8.814;2023-04-06T11:21:38;101843.69;;;17.95;72.57
64340;BME280;63709;53.258;-8.814;2023-04-06T11:29:12;101849.75;;;17.47;71.71
64340;BME280;63709;53.258;-8.814;2023-04-06T11:31:46;101840.81;;;17.56;65.51
64340;BME280;63709;53.258;-8.814;2023-04-06T11:34:17;101849.13;;;17.74;70.69
64340;BME280;63709;53.258;-8.814;2023-04-06T11:36:44;101861.47;;;17.66;69.91
64340;BME280;63709;53.258;-8.814;2023-04-06T11:39:10;101849.63;;;17.27;69.32
64340;BME280;63709;53.258;-8.814;2023-04-06T11:41:36;101864.09;;;17.26;64.48
64340;BME280;63709;53.258;-8.814;2023-04-06T11:44:02;101856.25;;;17.44;66.74
64340;BME280;63709;53.258;-8.814;2023-04-06T11:46:29;101858.44;;;17.08;64.53
64340;BME280;63709;53.258;-8.814;2023-04-06T11:48:59;101864.72;;;16.88;65.23
64340;BME280;63709;53.258;-8.814;2023-04-06T11:51:26;101876.16;;;16.80;73.47
64340;BME280;63709;53.258;-8.814;2023-04-06T11:53:52;101860.56;;;16.84;75.58
64340;BME280;63709;53.258;-8.814;2023-04-06T11:56:30;101877.94;;;16.91;73.83
64340;BME280;63709;53.258;-8.814;2023-04-06T11:58:57;101870.41;;;17.36;76.60
64340;BME280;63709;53.258;-8.814;2023-04-06T12:01:25;101862.66;;;17.43;75.79
64340;BME280;63709;53.258;-8.814;2023-04-06T12:03:52;101866.03;;;17.35;67.47
64340;BME280;63709;53.258;-8.814;2023-04-06T12:06:18;101876.94;;;17.34;78.72
64340;BME280;63709;53.258;-8.814;2023-04-06T12:08:45;101876.41;;;17.40;74.24
64340;BME280;63709;53.258;-8.814;2023-04-06T12:11:11;101892.75;;;17.17;77.18
64340;BME280;63709;53.258;-8.814;2023-04-06T12:13:37;101896.69;;;17.13;82.93
64340;BME280;63709;53.258;-8.814;2023-04-06T12:16:03;101892.94;;;16.84;100.00
64340;BME280;63709;53.258;-8.814;2023-04-06T12:18:30;101901.53;;;16.78;96.38
64340;BME280;63709;53.258;-8.814;2023-04-06T12:20:55;101894.59;;;16.53;100.00
64340;BME280;63709;53.258;-8.814;2023-04-06T12:23:21;101903.00;;;16.70;100.00
64340;BME280;63709;53.258;-8.814;2023-04-06T12:25:47;101885.94;;;16.38;100.00
64340;BME280;63709;53.258;-8.814;2023-04-06T12:28:13;101904.31;;;16.44;100.00
64340;BME280;63709;53.258;-8.814;2023-04-06T12:30:39;101903.63;;;15.75;100.00
64340;BME280;63709;53.258;-8.814;2023-04-06T12:33:06;101903.34;;;15.44;100.00
64340;BME280;63709;53.258;-8.814;2023-04-06T12:35:34;101908.97;;;15.52;100.00
64340;BME280;63709;53.258;-8.814;2023-04-06T12:38:00;101913.88;;;15.58;100.00
64340;BME280;63709;53.258;-8.814;2023-04-06T12:40:27;101906.09;;;15.66;100.00
64340;BME280;63709;53.258;-8.814;2023-04-06T12:42:53;101900.56;;;15.68;100.00
64340;BME280;63709;53.258;-8.814;2023-04-06T12:45:23;101899.72;;;15.79;100.00
64340;BME280;63709;53.258;-8.814;2023-04-06T12:47:48;101923.28;;;15.64;100.00
64340;BME280;63709;53.258;-8.814;2023-04-06T12:50:14;101908.88;;;15.54;100.00
64340;BME280;63709;53.258;-8.814;2023-04-06T12:52:39;101918.63;;;15.43;100.00